Terminal Aerodrome Forecast
Issued by NWS Charleston, WV

Home | Current Version | Previous Version | Text Only | Print | Product List | Glossary On
Versions: 1 2 3 4 5 6 7 8 9 10 11 12 13 14 15 16 17 18 19 20 21 22 23 24 25
000
FTUS41 KRLX 310500
TAFEKN
TAF
KEKN 310530Z 3106/0106 00000KT 3SM BR BKN035
     FM310900 00000KT 1/4SM FG VV001
     FM311200 VRB03KT 2SM BR SCT001 BKN035
     FM311500 23005KT P6SM BKN045=

USA.gov is the U.S. government's official web portal to all federal, state and local government web resources and services.